createdAt,value
2023-03-18T00:00:35.304Z,266.85
2023-03-18T00:03:43.232Z,257.32
2023-03-18T00:06:49.917Z,269.15
2023-03-18T00:09:56.817Z,271.15
2023-03-18T00:13:04.683Z,282.38
2023-03-18T00:16:15.340Z,271.10
2023-03-18T00:19:21.386Z,286.29
2023-03-18T00:22:28.618Z,300.31
2023-03-18T00:25:34.560Z,315.39
2023-03-18T00:28:46.647Z,312.90
2023-03-18T00:31:56.438Z,291.16
2023-03-18T00:35:06.358Z,275.94
2023-03-18T00:38:20.963Z,274.39
2023-03-18T00:41:29.404Z,272.28
2023-03-18T00:44:43.600Z,264.46
2023-03-18T00:47:53.952Z,280.23
2023-03-18T00:51:00.854Z,285.90
2023-03-18T00:54:19.932Z,290.86
2023-03-18T00:57:27.613Z,282.45
2023-03-18T01:00:35.848Z,283.02
2023-03-18T01:03:47.921Z,284.56
2023-03-18T01:06:54.635Z,295.29
2023-03-18T01:10:00.521Z,303.94
2023-03-18T01:13:07.249Z,312.85
2023-03-18T01:16:18.080Z,315.98
2023-03-18T01:19:29.449Z,322.89
2023-03-18T01:22:36.246Z,332.28
2023-03-18T01:25:43.577Z,338.25
2023-03-18T01:28:51.053Z,340.71
2023-03-18T01:32:10.918Z,347.47
2023-03-18T01:35:20.507Z,343.22
2023-03-18T01:38:34.845Z,346.98
2023-03-18T01:42:00.121Z,340.40
2023-03-18T01:45:24.928Z,337.83
2023-03-18T01:48:42.751Z,321.56
2023-03-18T01:52:00.633Z,316.89
2023-03-18T01:55:12.876Z,320.32
2023-03-18T01:58:25.714Z,318.37
2023-03-18T02:01:38.361Z,304.71
2023-03-18T02:04:50.949Z,307.43
2023-03-18T02:08:06.941Z,305.83
2023-03-18T02:11:14.439Z,301.00
2023-03-18T02:14:26.878Z,301.11
2023-03-18T02:17:40.386Z,300.51
2023-03-18T02:21:17.045Z,296.84
2023-03-18T02:24:48.360Z,302.39
2023-03-18T02:28:11.689Z,294.57
2023-03-18T02:31:21.244Z,296.58
2023-03-18T02:34:29.638Z,307.36
2023-03-18T02:37:37.405Z,309.46
2023-03-18T02:40:46.173Z,316.91
2023-03-18T02:44:01.065Z,321.95
2023-03-18T02:47:23.803Z,317.93
2023-03-18T02:50:30.812Z,323.42
2023-03-18T02:54:04.201Z,322.77
2023-03-18T02:57:16.199Z,329.80
2023-03-18T03:00:28.471Z,337.10
2023-03-18T03:03:42.594Z,342.61
2023-03-18T03:06:51.687Z,348.87
2023-03-18T03:10:05.250Z,363.45
2023-03-18T03:13:13.710Z,363.19
2023-03-18T03:16:24.969Z,363.92
2023-03-18T03:19:31.122Z,369.93
2023-03-18T03:22:51.575Z,368.75
2023-03-18T03:26:04.076Z,378.92
2023-03-18T03:29:12.811Z,363.43
2023-03-18T03:32:24.899Z,352.58
2023-03-18T03:35:32.645Z,343.03
2023-03-18T03:38:38.839Z,337.48
2023-03-18T03:41:46.473Z,339.47
2023-03-18T03:44:55.140Z,322.18
2023-03-18T03:48:15.697Z,319.69
2023-03-18T03:51:24.126Z,314.24
2023-03-18T03:54:31.703Z,315.71
2023-03-18T03:57:40.008Z,304.65
2023-03-18T04:00:46.770Z,300.86
2023-03-18T04:03:58.168Z,307.87
2023-03-18T04:07:05.383Z,302.05
2023-03-18T04:10:15.179Z,287.12
2023-03-18T04:13:22.775Z,282.99
2023-03-18T04:16:29.541Z,283.25
2023-03-18T04:19:39.953Z,281.85
2023-03-18T04:22:47.070Z,274.84
2023-03-18T04:25:55.044Z,280.73
2023-03-18T04:29:01.202Z,275.02
2023-03-18T04:32:11.123Z,272.12
2023-03-18T04:35:21.712Z,270.13
2023-03-18T04:38:30.789Z,268.46
2023-03-18T04:41:37.692Z,271.07
2023-03-18T04:44:45.928Z,271.04
2023-03-18T04:47:53.079Z,269.33
2023-03-18T04:51:08.395Z,271.98
2023-03-18T04:54:15.396Z,271.16
2023-03-18T04:57:22.621Z,270.57
2023-03-18T05:00:35.445Z,272.18
2023-03-18T05:03:55.465Z,276.14
2023-03-18T05:07:07.384Z,278.23
2023-03-18T05:10:19.089Z,278.99
2023-03-18T05:13:25.489Z,281.19
2023-03-18T05:16:37.474Z,279.25
2023-03-18T05:19:44.259Z,280.76
2023-03-18T05:22:58.459Z,285.24
2023-03-18T05:26:20.857Z,275.91
2023-03-18T05:29:27.935Z,270.36
2023-03-18T05:32:43.653Z,262.52
2023-03-18T05:35:51.148Z,263.31
2023-03-18T05:39:03.503Z,257.03
2023-03-18T05:42:11.817Z,256.96
2023-03-18T05:45:22.557Z,253.39
2023-03-18T05:48:36.414Z,253.77
2023-03-18T05:51:44.998Z,257.74
2023-03-18T05:54:59.501Z,264.39
2023-03-18T05:58:10.385Z,261.63
2023-03-18T06:01:23.009Z,260.86
2023-03-18T06:04:29.507Z,260.84
2023-03-18T06:07:36.896Z,260.22
2023-03-18T06:11:00.761Z,255.95
2023-03-18T06:14:11.990Z,258.99
2023-03-18T06:17:18.317Z,260.44
2023-03-18T06:20:25.403Z,257.67
2023-03-18T06:23:31.936Z,263.96
2023-03-18T06:26:41.726Z,258.73
2023-03-18T06:29:48.206Z,278.84
2023-03-18T06:32:58.096Z,284.15
2023-03-18T06:36:10.832Z,322.07
2023-03-18T06:39:30.189Z,327.03
2023-03-18T06:42:44.855Z,334.59
2023-03-18T06:45:59.750Z,322.48
2023-03-18T06:49:22.679Z,319.98
2023-03-18T06:52:40.696Z,318.71
2023-03-18T06:56:00.364Z,320.44
2023-03-18T06:59:28.885Z,320.46
2023-03-18T07:02:39.439Z,327.01
2023-03-18T07:05:47.914Z,327.55
2023-03-18T07:08:55.340Z,328.54
2023-03-18T07:12:03.574Z,344.61
2023-03-18T07:15:14.945Z,344.13
2023-03-18T07:18:21.906Z,341.34
2023-03-18T07:21:28.204Z,331.26
2023-03-18T07:24:36.175Z,327.97
2023-03-18T07:27:42.492Z,316.06
2023-03-18T07:30:54.052Z,314.82
2023-03-18T07:34:00.804Z,308.64
2023-03-18T07:37:17.830Z,306.34
2023-03-18T07:40:26.421Z,306.51
2023-03-18T07:43:33.081Z,305.85
2023-03-18T07:46:41.693Z,300.11
2023-03-18T07:49:48.646Z,302.51
2023-03-18T07:52:55.190Z,293.38
2023-03-18T07:56:08.403Z,288.59
2023-03-18T07:59:16.107Z,278.55
2023-03-18T08:02:28.418Z,266.45
2023-03-18T08:05:34.981Z,269.92
2023-03-18T08:08:44.891Z,264.20
2023-03-18T08:11:51.063Z,267.68
2023-03-18T08:14:58.217Z,268.75
2023-03-18T08:18:27.398Z,276.85
2023-03-18T08:21:50.890Z,260.31
2023-03-18T08:24:58.508Z,253.39
2023-03-18T08:28:12.352Z,250.56
2023-03-18T08:31:18.493Z,243.60
2023-03-18T08:34:28.100Z,247.78
2023-03-18T08:37:34.083Z,250.25
2023-03-18T08:40:48.524Z,249.51
2023-03-18T08:43:57.519Z,236.39
2023-03-18T08:47:04.441Z,246.11
2023-03-18T08:50:17.362Z,225.83
2023-03-18T08:53:24.520Z,189.69
2023-03-18T08:56:32.769Z,195.67
2023-03-18T08:59:44.802Z,193.39
2023-03-18T09:02:51.193Z,189.87
2023-03-18T09:06:00.794Z,158.11
2023-03-18T09:09:09.854Z,152.14
2023-03-18T09:12:19.583Z,139.73
2023-03-18T09:15:25.775Z,142.00
2023-03-18T09:18:32.867Z,136.15
2023-03-18T09:21:41.689Z,122.84
2023-03-18T09:24:48.569Z,164.02
2023-03-18T09:27:55.344Z,157.69
2023-03-18T09:31:02.812Z,147.98
2023-03-18T09:34:08.709Z,144.91
2023-03-18T09:37:25.688Z,167.33
2023-03-18T09:40:44.124Z,160.77
2023-03-18T09:44:14.974Z,139.01
2023-03-18T09:47:54.349Z,135.20
2023-03-18T09:51:20.030Z,131.07
2023-03-18T09:54:41.415Z,121.07
2023-03-18T09:57:54.588Z,114.45
2023-03-18T10:01:07.461Z,106.01
2023-03-18T10:04:23.790Z,103.20
2023-03-18T10:07:40.409Z,97.55
2023-03-18T10:10:52.610Z,83.61
2023-03-18T10:14:21.360Z,72.03
2023-03-18T10:17:35.838Z,75.60
2023-03-18T10:21:08.221Z,81.62
2023-03-18T10:24:38.277Z,80.60
2023-03-18T10:28:06.937Z,77.66
2023-03-18T10:31:29.939Z,75.80
2023-03-18T10:34:49.319Z,88.99
2023-03-18T10:38:06.202Z,80.23
2023-03-18T10:41:30.375Z,86.28
2023-03-18T10:44:45.802Z,82.00
2023-03-18T10:48:06.322Z,74.44
2023-03-18T10:51:24.874Z,79.51
2023-03-18T10:54:41.147Z,80.97
2023-03-18T10:57:48.068Z,84.81
2023-03-18T11:00:56.547Z,75.18
2023-03-18T11:04:11.466Z,78.56
2023-03-18T11:07:26.192Z,79.72
2023-03-18T11:10:40.053Z,95.40
2023-03-18T11:13:50.876Z,96.26
2023-03-18T11:17:06.492Z,91.27
2023-03-18T11:20:25.637Z,91.30
2023-03-18T11:23:56.275Z,96.26
2023-03-18T11:27:02.557Z,102.61
2023-03-18T11:30:33.667Z,96.14
2023-03-18T11:33:42.797Z,96.59
2023-03-18T11:36:59.222Z,105.28
2023-03-18T11:40:26.570Z,104.94
2023-03-18T11:43:33.471Z,108.26
2023-03-18T11:46:48.736Z,117.21
2023-03-18T11:49:59.661Z,84.97
2023-03-18T11:53:26.472Z,90.60
2023-03-18T11:56:43.700Z,94.47
2023-03-18T12:00:17.829Z,89.43
2023-03-18T12:04:08.097Z,84.94
2023-03-18T12:07:52.477Z,71.92
2023-03-18T12:11:14.839Z,72.82
2023-03-18T12:14:36.527Z,67.32
2023-03-18T12:18:04.520Z,64.03
2023-03-18T12:21:45.727Z,65.38
2023-03-18T12:25:30.922Z,65.38
2023-03-18T12:28:56.512Z,95.38
2023-03-18T12:32:26.740Z,76.00
2023-03-18T12:35:53.664Z,77.31
2023-03-18T12:39:31.219Z,78.43
2023-03-18T12:43:03.945Z,78.17
2023-03-18T12:46:29.475Z,83.28
2023-03-18T12:49:41.952Z,83.22
2023-03-18T12:52:57.959Z,94.30
2023-03-18T12:56:27.839Z,85.58
2023-03-18T12:59:53.957Z,67.62
2023-03-18T13:03:09.012Z,67.64
2023-03-18T13:06:26.826Z,65.66
2023-03-18T13:09:43.918Z,64.09
2023-03-18T13:12:56.218Z,65.21
2023-03-18T13:16:09.290Z,63.44
2023-03-18T13:19:16.127Z,62.72
2023-03-18T13:23:00.687Z,66.31
2023-03-18T13:26:24.529Z,64.68
2023-03-18T13:29:46.197Z,66.60
2023-03-18T13:33:37.494Z,68.65
2023-03-18T13:37:30.896Z,72.50
2023-03-18T13:41:22.627Z,75.14
2023-03-18T13:44:47.736Z,82.09
2023-03-18T13:48:08.842Z,72.12
2023-03-18T13:51:43.679Z,72.37
2023-03-18T13:54:51.826Z,69.13
2023-03-18T13:58:11.860Z,71.19
2023-03-18T14:01:36.763Z,70.18
2023-03-18T14:04:53.738Z,73.77
2023-03-18T14:08:45.118Z,75.29
2023-03-18T14:11:54.631Z,76.01
2023-03-18T14:15:08.265Z,70.74
2023-03-18T14:18:28.865Z,67.17
2023-03-18T14:21:52.621Z,70.93
2023-03-18T14:25:23.819Z,66.62
2023-03-18T14:28:31.973Z,73.13
2023-03-18T14:31:59.454Z,75.38
2023-03-18T14:35:30.082Z,77.53
2023-03-18T14:38:51.956Z,83.74
2023-03-18T14:42:06.180Z,86.25
2023-03-18T14:45:24.733Z,85.50
2023-03-18T14:48:35.585Z,74.78
2023-03-18T14:51:41.940Z,66.79
2023-03-18T14:54:58.077Z,64.46
2023-03-18T14:58:07.383Z,56.75
2023-03-18T15:01:26.056Z,66.07
2023-03-18T15:04:32.206Z,57.60
2023-03-18T15:07:47.740Z,47.90
2023-03-18T15:11:05.817Z,47.94
2023-03-18T15:14:26.271Z,52.90
2023-03-18T15:17:32.492Z,54.14
2023-03-18T15:20:40.596Z,57.05
2023-03-18T15:23:54.694Z,61.42
2023-03-18T15:27:14.680Z,66.99
2023-03-18T15:30:36.369Z,65.15
2023-03-18T15:33:44.176Z,59.42
2023-03-18T15:36:58.214Z,62.79
2023-03-18T15:40:31.273Z,63.27
2023-03-18T15:43:46.452Z,61.57
2023-03-18T15:46:54.786Z,62.34
2023-03-18T15:50:03.100Z,94.69
2023-03-18T15:53:25.101Z,112.61
2023-03-18T15:56:34.541Z,132.33
2023-03-18T15:59:44.269Z,136.03
2023-03-18T16:02:50.771Z,170.34
2023-03-18T16:06:01.223Z,160.46
2023-03-18T16:09:18.807Z,146.02
2023-03-18T16:12:29.991Z,169.87
2023-03-18T16:15:39.486Z,155.01
2023-03-18T16:18:46.928Z,141.33
2023-03-18T16:21:52.871Z,126.20
2023-03-18T16:24:59.945Z,133.16
2023-03-18T16:28:25.975Z,237.06
2023-03-18T16:31:42.336Z,279.68
2023-03-18T16:34:48.775Z,448.70
2023-03-18T16:37:57.090Z,508.53
2023-03-18T16:41:05.316Z,440.45
2023-03-18T16:44:19.470Z,432.75
2023-03-18T16:47:32.143Z,408.53
2023-03-18T16:50:45.064Z,318.85
2023-03-18T16:53:56.407Z,373.31
2023-03-18T16:57:08.373Z,457.12
2023-03-18T17:00:22.936Z,572.75
2023-03-18T17:03:35.305Z,605.88
2023-03-18T17:06:41.261Z,653.34
2023-03-18T17:09:48.148Z,579.45
2023-03-18T17:13:00.558Z,369.67
2023-03-18T17:16:08.228Z,320.23
2023-03-18T17:19:19.128Z,321.62
2023-03-18T17:22:29.689Z,350.83
2023-03-18T17:25:36.399Z,306.90
2023-03-18T17:28:49.531Z,268.95
2023-03-18T17:31:57.607Z,257.25
2023-03-18T17:35:17.866Z,281.75
2023-03-18T17:38:24.655Z,281.04
2023-03-18T17:41:32.572Z,310.36
2023-03-18T17:44:39.242Z,354.95
2023-03-18T17:47:46.102Z,395.30
2023-03-18T17:50:58.322Z,453.33
2023-03-18T17:54:05.946Z,472.58
2023-03-18T17:57:18.098Z,534.54
2023-03-18T18:00:29.311Z,637.02
2023-03-18T18:03:38.974Z,627.25
2023-03-18T18:06:50.149Z,553.77
2023-03-18T18:09:57.292Z,547.47
2023-03-18T18:13:04.946Z,898.07
2023-03-18T18:16:11.212Z,819.13
2023-03-18T18:19:18.872Z,705.34
2023-03-18T18:22:27.863Z,602.33
2023-03-18T18:25:35.956Z,495.10
2023-03-18T18:28:45.033Z,465.75
2023-03-18T18:31:52.471Z,490.54
2023-03-18T18:34:58.488Z,513.36
2023-03-18T18:38:08.208Z,530.13
2023-03-18T18:41:14.551Z,620.49
2023-03-18T18:44:22.007Z,547.71
2023-03-18T18:47:28.215Z,477.24
2023-03-18T18:50:35.804Z,461.63
2023-03-18T18:53:44.452Z,527.53
2023-03-18T18:56:51.434Z,625.11
2023-03-18T18:59:58.302Z,629.53
2023-03-18T19:03:05.996Z,717.13
2023-03-18T19:06:29.522Z,800.44
2023-03-18T19:09:39.395Z,858.41
2023-03-18T19:12:46.495Z,805.12
2023-03-18T19:15:58.395Z,772.30
2023-03-18T19:19:06.303Z,899.67
2023-03-18T19:22:18.345Z,981.03
2023-03-18T19:25:28.818Z,1006.26
2023-03-18T19:28:59.724Z,937.23
2023-03-18T19:32:09.425Z,818.37
2023-03-18T19:35:17.358Z,756.29
2023-03-18T19:38:25.148Z,702.46
2023-03-18T19:41:34.566Z,795.78
2023-03-18T19:44:42.671Z,788.36
2023-03-18T19:47:50.068Z,709.91
2023-03-18T19:50:57.884Z,692.02
2023-03-18T19:54:31.725Z,762.79
2023-03-18T19:57:40.350Z,630.13
2023-03-18T20:00:47.811Z,615.84
2023-03-18T20:03:59.161Z,586.42
2023-03-18T20:07:08.484Z,484.98
2023-03-18T20:10:16.912Z,411.65
2023-03-18T20:13:27.242Z,378.24
2023-03-18T20:16:36.505Z,300.34
2023-03-18T20:19:43.314Z,283.52
2023-03-18T20:22:55.934Z,284.94
2023-03-18T20:26:02.994Z,284.63
2023-03-18T20:29:21.132Z,298.34
2023-03-18T20:32:28.414Z,341.21
2023-03-18T20:35:38.411Z,313.31
2023-03-18T20:38:48.344Z,337.47
2023-03-18T20:41:54.634Z,339.86
2023-03-18T20:45:04.321Z,338.40
2023-03-18T20:48:10.780Z,331.33
2023-03-18T20:51:25.406Z,350.20
2023-03-18T20:54:37.562Z,346.03
2023-03-18T20:57:44.292Z,359.25
2023-03-18T21:00:54.252Z,356.32
2023-03-18T21:04:02.570Z,361.50
2023-03-18T21:07:08.566Z,321.88
2023-03-18T21:10:21.416Z,294.21
2023-03-18T21:13:34.014Z,270.23
2023-03-18T21:16:43.584Z,257.73
2023-03-18T21:19:50.484Z,269.95
2023-03-18T21:22:58.035Z,321.81
2023-03-18T21:26:04.426Z,322.55
2023-03-18T21:29:11.076Z,320.91
2023-03-18T21:32:27.331Z,318.60
2023-03-18T21:35:34.611Z,342.01
2023-03-18T21:38:40.708Z,395.77
2023-03-18T21:41:47.550Z,380.80
2023-03-18T21:44:54.768Z,308.65
2023-03-18T21:48:04.164Z,256.84
2023-03-18T21:51:38.182Z,226.15
2023-03-18T21:54:45.890Z,205.91
2023-03-18T21:57:52.853Z,222.46
2023-03-18T22:01:02.710Z,242.49
2023-03-18T22:04:12.128Z,255.33
2023-03-18T22:07:21.912Z,249.42
2023-03-18T22:10:28.941Z,260.50
2023-03-18T22:13:36.235Z,268.69
2023-03-18T22:16:42.088Z,264.39
2023-03-18T22:19:52.308Z,264.93
2023-03-18T22:22:58.442Z,287.25
2023-03-18T22:26:05.140Z,286.82
2023-03-18T22:29:10.921Z,281.89
2023-03-18T22:32:40.677Z,283.48
2023-03-18T22:35:49.663Z,287.46
2023-03-18T22:38:56.536Z,291.67
2023-03-18T22:42:02.665Z,285.86
2023-03-18T22:45:22.810Z,310.39
2023-03-18T22:48:29.737Z,343.12
2023-03-18T22:51:44.987Z,363.04
2023-03-18T22:54:56.086Z,361.97
2023-03-18T22:58:02.837Z,373.45
2023-03-18T23:01:09.923Z,388.55
2023-03-18T23:04:19.708Z,405.62
2023-03-18T23:07:34.456Z,397.49
2023-03-18T23:10:42.348Z,388.35
2023-03-18T23:13:53.433Z,387.62
2023-03-18T23:17:00.137Z,386.33
2023-03-18T23:20:06.278Z,378.72
2023-03-18T23:23:16.442Z,361.24
2023-03-18T23:26:22.758Z,336.59
2023-03-18T23:29:29.483Z,303.80
2023-03-18T23:32:35.965Z,280.28
2023-03-18T23:35:44.232Z,258.39
2023-03-18T23:38:52.817Z,250.31
2023-03-18T23:41:59.826Z,242.85
2023-03-18T23:45:06.951Z,252.29
2023-03-18T23:48:13.685Z,265.59
2023-03-18T23:51:19.525Z,280.01
2023-03-18T23:54:29.212Z,271.92
2023-03-18T23:57:35.104Z,269.92
